createdAt,value
2023-06-23T00:00:48.349Z,17.02
2023-06-23T00:01:48.351Z,17.05
2023-06-23T00:02:48.264Z,16.96
2023-06-23T00:03:48.250Z,17.00
2023-06-23T00:04:48.269Z,16.96
2023-06-23T00:05:48.147Z,16.99
2023-06-23T00:06:48.216Z,17.02
2023-06-23T00:07:48.110Z,16.96
2023-06-23T00:08:48.096Z,16.96
2023-06-23T00:09:48.104Z,16.91
2023-06-23T00:10:48.043Z,16.98
2023-06-23T00:11:48.124Z,16.87
2023-06-23T00:12:48.000Z,16.96
2023-06-23T00:13:48.003Z,16.91
2023-06-23T00:14:47.959Z,16.96
2023-06-23T00:15:48.044Z,16.96
2023-06-23T00:16:47.918Z,16.96
2023-06-23T00:17:48.084Z,16.96
2023-06-23T00:18:47.914Z,16.88
2023-06-23T00:19:47.859Z,16.98
2023-06-23T00:20:47.836Z,16.87
2023-06-23T00:21:47.897Z,16.90
2023-06-23T00:22:47.813Z,16.85
2023-06-23T00:23:47.795Z,16.88
2023-06-23T00:24:47.753Z,16.96
2023-06-23T00:25:47.739Z,16.96
2023-06-23T00:26:47.818Z,16.96
2023-06-23T00:27:47.699Z,16.98
2023-06-23T00:28:47.734Z,16.98
2023-06-23T00:29:47.667Z,16.98
2023-06-23T00:30:47.626Z,16.96
2023-06-23T00:31:47.653Z,17.00
2023-06-23T00:32:47.700Z,16.99
2023-06-23T00:33:47.574Z,16.99
2023-06-23T00:34:47.567Z,16.96
2023-06-23T00:35:47.519Z,16.92
2023-06-23T00:36:47.503Z,16.99
2023-06-23T00:37:47.477Z,16.91
2023-06-23T00:38:47.522Z,16.87
2023-06-23T00:39:47.440Z,16.87
2023-06-23T00:40:47.512Z,16.87
2023-06-23T00:41:47.418Z,16.88
2023-06-23T00:42:47.428Z,16.87
2023-06-23T00:43:47.364Z,16.95
2023-06-23T00:44:47.447Z,16.85
2023-06-23T00:45:47.310Z,16.87
2023-06-23T00:46:47.345Z,16.96
2023-06-23T00:47:47.392Z,16.88
2023-06-23T00:48:47.267Z,16.91
2023-06-23T00:49:47.265Z,16.85
2023-06-23T00:50:47.206Z,16.85
2023-06-23T00:51:47.299Z,16.90
2023-06-23T00:52:47.165Z,16.84
2023-06-23T00:53:47.166Z,16.90
2023-06-23T00:54:47.201Z,16.88
2023-06-23T00:55:47.113Z,16.81
2023-06-23T00:56:47.110Z,16.85
2023-06-23T00:57:47.060Z,16.85
2023-06-23T00:58:47.038Z,16.77
2023-06-23T00:59:47.016Z,16.81
2023-06-23T01:00:47.040Z,16.78
2023-06-23T01:01:46.981Z,16.77
2023-06-23T01:02:47.157Z,16.75
2023-06-23T01:03:46.989Z,16.73
2023-06-23T01:04:46.909Z,16.73
2023-06-23T01:05:46.973Z,16.70
2023-06-23T01:06:46.879Z,16.66
2023-06-23T01:07:46.886Z,16.70
2023-06-23T01:08:46.838Z,16.65
2023-06-23T01:09:46.901Z,16.69
2023-06-23T01:10:46.804Z,16.67
2023-06-23T01:11:46.825Z,16.65
2023-06-23T01:12:46.752Z,16.67
2023-06-23T01:13:46.828Z,16.69
2023-06-23T01:14:46.707Z,16.59
2023-06-23T01:15:46.682Z,16.60
2023-06-23T01:16:46.670Z,16.59
2023-06-23T01:17:46.675Z,16.59
2023-06-23T01:18:46.638Z,16.63
2023-06-23T01:19:46.664Z,16.65
2023-06-23T01:20:46.591Z,16.60
2023-06-23T01:21:46.554Z,16.60
2023-06-23T01:22:46.589Z,16.59
2023-06-23T01:23:46.543Z,16.63
2023-06-23T01:24:46.600Z,16.55
2023-06-23T01:25:46.500Z,16.59
2023-06-23T01:26:46.461Z,16.66
2023-06-23T01:27:46.433Z,16.59
2023-06-23T01:28:46.545Z,16.52
2023-06-23T01:29:46.388Z,16.50
2023-06-23T01:30:46.440Z,16.57
2023-06-23T01:31:46.392Z,16.50
2023-06-23T01:32:46.413Z,16.51
2023-06-23T01:33:46.326Z,16.51
2023-06-23T01:34:46.389Z,16.54
2023-06-23T01:35:46.277Z,16.52
2023-06-23T01:36:46.278Z,16.47
2023-06-23T01:37:46.257Z,16.50
2023-06-23T01:38:46.297Z,16.45
2023-06-23T01:39:46.179Z,16.48
2023-06-23T01:40:46.204Z,16.42
2023-06-23T01:41:46.153Z,16.42
2023-06-23T01:42:46.220Z,16.44
2023-06-23T01:43:46.124Z,16.34
2023-06-23T01:44:46.075Z,16.37
2023-06-23T01:45:46.155Z,16.32
2023-06-23T01:46:46.066Z,16.41
2023-06-23T01:47:46.067Z,16.34
2023-06-23T01:48:45.998Z,16.34
2023-06-23T01:49:45.979Z,16.33
2023-06-23T01:50:45.967Z,16.33
2023-06-23T01:51:45.938Z,16.30
2023-06-23T01:52:45.998Z,16.34
2023-06-23T01:53:45.912Z,16.40
2023-06-23T01:54:45.886Z,16.32
2023-06-23T01:55:45.850Z,16.33
2023-06-23T01:56:45.924Z,16.32
2023-06-23T01:57:45.813Z,16.25
2023-06-23T01:58:45.823Z,16.29
2023-06-23T01:59:45.766Z,16.26
2023-06-23T02:00:45.739Z,16.17
2023-06-23T02:01:45.821Z,16.17
2023-06-23T02:02:45.796Z,16.25
2023-06-23T02:03:45.902Z,16.18
2023-06-23T02:04:45.676Z,16.18
2023-06-23T02:05:45.672Z,16.18
2023-06-23T02:06:45.620Z,16.14
2023-06-23T02:07:45.697Z,16.16
2023-06-23T02:08:45.577Z,16.13
2023-06-23T02:09:45.594Z,16.16
2023-06-23T02:10:45.524Z,16.27
2023-06-23T02:11:45.499Z,16.27
2023-06-23T02:12:45.487Z,16.33
2023-06-23T02:13:45.521Z,16.25
2023-06-23T02:14:45.446Z,16.26
2023-06-23T02:15:45.437Z,16.25
2023-06-23T02:16:45.414Z,16.26
2023-06-23T02:17:45.379Z,16.29
2023-06-23T02:18:45.465Z,16.27
2023-06-23T02:19:45.331Z,16.29
2023-06-23T02:20:45.373Z,16.26
2023-06-23T02:21:45.288Z,16.27
2023-06-23T02:22:45.276Z,16.25
2023-06-23T02:23:45.253Z,16.17
2023-06-23T02:24:45.291Z,16.18
2023-06-23T02:25:45.221Z,16.17
2023-06-23T02:26:45.207Z,16.16
2023-06-23T02:27:45.158Z,16.14
2023-06-23T02:28:45.149Z,16.25
2023-06-23T02:29:45.127Z,16.11
2023-06-23T02:30:45.094Z,16.18
2023-06-23T02:31:45.182Z,16.16
2023-06-23T02:32:45.088Z,16.13
2023-06-23T02:33:45.070Z,16.14
2023-06-23T02:34:45.040Z,16.14
2023-06-23T02:35:45.068Z,16.14
2023-06-23T02:36:44.968Z,16.10
2023-06-23T02:37:44.983Z,16.13
2023-06-23T02:38:44.944Z,16.10
2023-06-23T02:39:44.908Z,16.17
2023-06-23T02:40:44.883Z,16.16
2023-06-23T02:41:44.903Z,16.13
2023-06-23T02:42:44.844Z,16.10
2023-06-23T02:43:44.968Z,16.11
2023-06-23T02:44:44.802Z,16.10
2023-06-23T02:45:44.802Z,16.08
2023-06-23T02:46:44.843Z,16.08
2023-06-23T02:47:44.802Z,16.08
2023-06-23T02:48:44.754Z,16.11
2023-06-23T02:49:44.702Z,16.10
2023-06-23T02:50:44.694Z,16.06
2023-06-23T02:51:44.650Z,16.04
2023-06-23T02:52:44.678Z,16.17
2023-06-23T02:53:44.622Z,16.04
2023-06-23T02:54:44.707Z,16.08
2023-06-23T02:55:44.565Z,16.11
2023-06-23T02:56:44.605Z,16.08
2023-06-23T02:57:44.626Z,16.07
2023-06-23T02:58:44.518Z,15.95
2023-06-23T02:59:44.524Z,16.06
2023-06-23T03:00:44.519Z,16.03
2023-06-23T03:01:44.571Z,16.07
2023-06-23T03:02:44.463Z,16.06
2023-06-23T03:03:44.493Z,15.99
2023-06-23T03:04:44.377Z,15.96
2023-06-23T03:05:44.379Z,16.04
2023-06-23T03:06:44.345Z,16.06
2023-06-23T03:07:44.316Z,16.01
2023-06-23T03:08:44.387Z,15.98
2023-06-23T03:09:44.270Z,16.04
2023-06-23T03:10:44.309Z,16.03
2023-06-23T03:11:44.229Z,16.01
2023-06-23T03:12:44.240Z,15.98
2023-06-23T03:13:44.199Z,15.93
2023-06-23T03:14:44.262Z,16.03
2023-06-23T03:15:44.156Z,15.98
2023-06-23T03:16:44.141Z,15.98
2023-06-23T03:17:44.130Z,15.96
2023-06-23T03:18:44.094Z,15.96
2023-06-23T03:19:44.062Z,15.92
2023-06-23T03:20:44.069Z,15.88
2023-06-23T03:21:44.012Z,15.86
2023-06-23T03:22:44.097Z,15.91
2023-06-23T03:23:43.983Z,15.88
2023-06-23T03:24:43.944Z,15.88
2023-06-23T03:25:44.005Z,15.88
2023-06-23T03:26:43.904Z,15.88
2023-06-23T03:27:43.922Z,15.85
2023-06-23T03:28:43.879Z,15.77
2023-06-23T03:29:43.957Z,15.77
2023-06-23T03:30:43.846Z,15.73
2023-06-23T03:31:43.838Z,15.78
2023-06-23T03:32:43.829Z,15.78
2023-06-23T03:33:43.854Z,15.86
2023-06-23T03:34:43.733Z,15.80
2023-06-23T03:35:43.746Z,15.80
2023-06-23T03:36:43.717Z,15.84
2023-06-23T03:37:43.781Z,15.77
2023-06-23T03:38:43.657Z,15.78
2023-06-23T03:39:43.695Z,15.77
2023-06-23T03:40:43.608Z,15.74
2023-06-23T03:41:43.591Z,15.78
2023-06-23T03:42:43.621Z,15.78
2023-06-23T03:43:43.557Z,15.77
2023-06-23T03:44:43.626Z,15.74
2023-06-23T03:45:43.495Z,15.77
2023-06-23T03:46:43.556Z,15.76
2023-06-23T03:47:43.474Z,15.77
2023-06-23T03:48:43.578Z,15.78
2023-06-23T03:49:43.411Z,15.81
2023-06-23T03:50:43.462Z,15.78
2023-06-23T03:51:43.365Z,15.86
2023-06-23T03:52:50.560Z,15.88
2023-06-23T03:54:47.341Z,15.88
2023-06-23T03:55:47.287Z,15.86
2023-06-23T03:57:51.322Z,15.88
2023-06-23T03:58:51.280Z,15.89
2023-06-23T03:59:51.247Z,15.88
2023-06-23T04:00:51.217Z,15.88
2023-06-23T04:01:51.238Z,15.89
2023-06-23T04:02:51.280Z,15.88
2023-06-23T04:03:51.238Z,15.85
2023-06-23T04:04:51.139Z,15.88
2023-06-23T04:05:51.117Z,15.88
2023-06-23T04:06:51.167Z,15.88
2023-06-23T04:07:51.064Z,15.88
2023-06-23T04:08:51.065Z,15.91
2023-06-23T04:09:51.031Z,15.88
2023-06-23T04:10:51.093Z,15.95
2023-06-23T04:11:50.989Z,15.91
2023-06-23T04:12:51.003Z,15.88
2023-06-23T04:13:50.955Z,15.88
2023-06-23T04:14:50.913Z,15.88
2023-06-23T04:15:50.913Z,15.99
2023-06-23T04:16:50.873Z,15.98
2023-06-23T04:17:51.030Z,16.01
2023-06-23T04:18:50.836Z,16.03
2023-06-23T04:19:50.831Z,15.98
2023-06-23T04:20:50.798Z,16.01
2023-06-23T04:21:50.865Z,16.06
2023-06-23T04:22:50.738Z,16.04
2023-06-23T04:23:50.769Z,15.98
2023-06-23T04:24:50.710Z,15.96
2023-06-23T04:25:50.673Z,15.91
2023-06-23T04:26:50.666Z,15.92
2023-06-23T04:27:50.695Z,15.92
2023-06-23T04:28:50.637Z,15.89
2023-06-23T04:29:50.607Z,15.96
2023-06-23T04:30:50.566Z,15.89
2023-06-23T04:31:50.647Z,15.92
2023-06-23T04:32:50.712Z,15.89
2023-06-23T04:33:50.515Z,15.92
2023-06-23T04:34:50.554Z,15.89
2023-06-23T04:35:50.464Z,15.88
2023-06-23T04:36:50.466Z,15.93
2023-06-23T04:37:50.430Z,15.92
2023-06-23T04:38:50.489Z,15.96
2023-06-23T04:39:50.375Z,15.98
2023-06-23T04:40:50.392Z,16.04
2023-06-23T04:41:50.344Z,16.04
2023-06-23T04:42:50.309Z,16.08
2023-06-23T04:43:50.301Z,16.14
2023-06-23T04:44:50.326Z,16.04
2023-06-23T04:45:50.272Z,16.04
2023-06-23T04:46:50.321Z,16.11
2023-06-23T04:47:50.203Z,16.11
2023-06-23T04:48:50.218Z,16.06
2023-06-23T04:49:50.238Z,16.07
2023-06-23T04:50:50.137Z,16.16
2023-06-23T04:51:52.929Z,16.17
2023-06-23T04:52:50.097Z,16.23
2023-06-23T04:53:50.074Z,16.16
2023-06-23T04:54:50.051Z,16.26
2023-06-23T04:55:50.079Z,16.23
2023-06-23T04:56:50.011Z,16.22
2023-06-23T04:57:50.200Z,16.23
2023-06-23T04:58:49.994Z,16.17
2023-06-23T04:59:49.962Z,16.30
2023-06-23T05:00:49.952Z,16.33
2023-06-23T05:01:49.961Z,16.36
2023-06-23T05:02:50.133Z,16.34
2023-06-23T05:03:50.043Z,16.33
2023-06-23T05:04:49.867Z,16.45
2023-06-23T05:05:49.918Z,16.36
2023-06-23T05:06:49.819Z,16.37
2023-06-23T05:07:49.867Z,16.42
2023-06-23T05:08:49.767Z,16.34
2023-06-23T05:09:49.774Z,16.34
2023-06-23T05:10:49.787Z,16.37
2023-06-23T05:11:49.698Z,16.50
2023-06-23T05:12:49.690Z,16.48
2023-06-23T05:13:49.671Z,16.48
2023-06-23T05:14:49.705Z,16.51
2023-06-23T05:15:49.608Z,16.50
2023-06-23T05:16:49.604Z,16.47
2023-06-23T05:17:49.722Z,16.51
2023-06-23T05:18:49.577Z,16.47
2023-06-23T05:19:49.560Z,16.55
2023-06-23T05:20:49.503Z,16.50
2023-06-23T05:21:49.497Z,16.54
2023-06-23T05:22:49.540Z,16.63
2023-06-23T05:23:53.419Z,16.60
2023-06-23T05:24:49.421Z,16.59
2023-06-23T05:25:49.480Z,16.70
2023-06-23T05:26:49.377Z,16.66
2023-06-23T05:27:49.365Z,16.63
2023-06-23T05:28:49.400Z,16.69
2023-06-23T05:29:49.317Z,16.70
2023-06-23T05:30:49.387Z,16.66
2023-06-23T05:31:49.273Z,16.72
2023-06-23T05:32:49.336Z,16.73
2023-06-23T05:33:49.242Z,16.69
2023-06-23T05:34:49.258Z,16.77
2023-06-23T05:35:49.339Z,16.78
2023-06-23T05:36:49.282Z,16.81
2023-06-23T05:37:49.140Z,16.82
2023-06-23T05:38:49.148Z,16.81
2023-06-23T05:39:49.172Z,16.85
2023-06-23T05:40:49.098Z,16.91
2023-06-23T05:41:49.101Z,16.98
2023-06-23T05:42:49.033Z,16.98
2023-06-23T05:43:49.098Z,16.99
2023-06-23T05:44:48.998Z,17.03
2023-06-23T05:45:49.038Z,16.99
2023-06-23T05:46:48.997Z,17.10
2023-06-23T05:47:49.076Z,17.09
2023-06-23T05:48:48.934Z,17.18
2023-06-23T05:49:48.888Z,17.18
2023-06-23T05:50:48.877Z,17.21
2023-06-23T05:51:48.949Z,17.18
2023-06-23T05:52:48.836Z,17.28
2023-06-23T05:53:48.880Z,17.21
2023-06-23T05:54:48.806Z,17.33
2023-06-23T05:55:48.772Z,17.32
2023-06-23T05:56:48.745Z,17.30
2023-06-23T05:57:48.793Z,17.45
2023-06-23T05:58:48.726Z,17.49
2023-06-23T05:59:48.705Z,17.47
2023-06-23T06:00:48.731Z,17.49
2023-06-23T06:01:48.716Z,17.53
2023-06-23T06:02:48.647Z,17.55
2023-06-23T06:03:48.666Z,17.63
2023-06-23T06:04:48.576Z,17.66
2023-06-23T06:05:48.664Z,17.58
2023-06-23T06:06:48.548Z,17.62
2023-06-23T06:07:48.558Z,17.76
2023-06-23T06:08:48.522Z,17.63
2023-06-23T06:09:48.591Z,17.62
2023-06-23T06:10:48.461Z,17.62
2023-06-23T06:11:48.484Z,17.74
2023-06-23T06:12:51.096Z,17.73
2023-06-23T06:13:48.504Z,17.77
2023-06-23T06:14:48.392Z,17.81
2023-06-23T06:15:48.415Z,17.87
2023-06-23T06:16:48.352Z,17.94
2023-06-23T06:17:48.384Z,17.96
2023-06-23T06:18:48.321Z,17.99
2023-06-23T06:19:49.371Z,17.99
2023-06-23T06:20:48.250Z,18.02
2023-06-23T06:21:49.378Z,18.11
2023-06-23T06:22:49.571Z,18.09
2023-06-23T06:23:48.198Z,18.10
2023-06-23T06:24:48.194Z,18.14
2023-06-23T06:25:48.161Z,18.14
2023-06-23T06:26:48.184Z,18.14
2023-06-23T06:27:48.106Z,18.17
2023-06-23T06:28:48.100Z,18.23
2023-06-23T06:29:48.080Z,18.19
2023-06-23T06:30:48.127Z,18.23
2023-06-23T06:31:48.125Z,18.19
2023-06-23T06:32:48.084Z,18.25
2023-06-23T06:33:48.004Z,18.21
2023-06-23T06:34:47.966Z,18.26
2023-06-23T06:35:48.054Z,18.31
2023-06-23T06:36:47.956Z,18.28
2023-06-23T06:37:47.906Z,18.29
2023-06-23T06:38:47.978Z,18.35
2023-06-23T06:39:47.864Z,18.35
2023-06-23T06:40:47.924Z,18.39
2023-06-23T06:41:47.825Z,18.39
2023-06-23T06:42:47.982Z,18.41
2023-06-23T06:43:47.796Z,18.44
2023-06-23T06:44:47.818Z,18.49
2023-06-23T06:45:47.815Z,18.46
2023-06-23T06:46:47.723Z,18.50
2023-06-23T06:47:47.757Z,18.56
2023-06-23T06:48:47.722Z,18.56
2023-06-23T06:49:48.762Z,18.66
2023-06-23T06:50:47.661Z,18.69
2023-06-23T06:51:47.697Z,18.75
2023-06-23T06:52:47.656Z,18.74
2023-06-23T06:53:47.598Z,18.79
2023-06-23T06:54:47.698Z,18.78
2023-06-23T06:55:47.563Z,18.78
2023-06-23T06:56:47.679Z,18.87
2023-06-23T06:57:47.502Z,18.94
2023-06-23T06:58:47.604Z,18.99
2023-06-23T06:59:47.490Z,18.96
2023-06-23T07:00:47.585Z,18.90
2023-06-23T07:01:47.501Z,19.01
2023-06-23T07:02:47.499Z,19.05
2023-06-23T07:03:47.512Z,19.02
2023-06-23T07:04:47.516Z,19.23
2023-06-23T07:05:47.344Z,19.15
2023-06-23T07:06:48.376Z,19.20
2023-06-23T07:07:47.315Z,19.15
2023-06-23T07:08:47.297Z,19.21
2023-06-23T07:09:47.404Z,19.28
2023-06-23T07:10:47.254Z,19.32
2023-06-23T07:11:47.285Z,19.40
2023-06-23T07:12:47.205Z,19.42
2023-06-23T07:13:47.239Z,19.52
2023-06-23T07:14:47.217Z,19.57
2023-06-23T07:15:47.307Z,19.50
2023-06-23T07:16:47.145Z,19.55
2023-06-23T07:17:47.164Z,19.57
2023-06-23T07:18:47.226Z,19.55
2023-06-23T07:19:47.079Z,19.57
2023-06-23T07:20:47.093Z,19.43
2023-06-23T07:21:47.049Z,19.49
2023-06-23T07:22:47.016Z,19.53
2023-06-23T07:23:47.066Z,19.64
2023-06-23T07:24:46.968Z,19.55
2023-06-23T07:25:47.073Z,19.67
2023-06-23T07:26:46.982Z,19.64
2023-06-23T07:27:46.961Z,19.67
2023-06-23T07:28:47.006Z,19.70
2023-06-23T07:29:46.876Z,19.72
2023-06-23T07:30:46.925Z,19.75
2023-06-23T07:31:46.846Z,19.78
2023-06-23T07:32:47.981Z,19.76
2023-06-23T07:33:46.806Z,19.90
2023-06-23T07:34:46.904Z,19.89
2023-06-23T07:35:46.772Z,19.71
2023-06-23T07:36:46.808Z,19.76
2023-06-23T07:37:46.724Z,19.75
2023-06-23T07:38:46.770Z,19.87
2023-06-23T07:39:46.687Z,19.86
2023-06-23T07:40:46.671Z,19.98
2023-06-23T07:41:49.349Z,19.85
2023-06-23T07:42:46.703Z,20.07
2023-06-23T07:43:46.692Z,19.98
2023-06-23T07:44:46.612Z,20.15
2023-06-23T07:45:46.704Z,20.05
2023-06-23T07:46:46.652Z,20.17
2023-06-23T07:47:47.670Z,20.31
2023-06-23T07:48:46.533Z,20.41
2023-06-23T07:49:46.542Z,20.42
2023-06-23T07:50:46.978Z,20.48
2023-06-23T07:51:46.553Z,20.56
2023-06-23T07:52:46.432Z,20.63
2023-06-23T07:53:58.183Z,20.69
2023-06-23T07:54:46.409Z,20.54
2023-06-23T07:55:46.479Z,20.58
2023-06-23T07:56:46.359Z,20.58
2023-06-23T07:57:46.396Z,20.64
2023-06-23T07:58:46.343Z,20.64
2023-06-23T07:59:46.326Z,20.68
2023-06-23T08:00:46.291Z,20.71
2023-06-23T08:01:46.327Z,20.81
2023-06-23T08:02:46.360Z,20.79
2023-06-23T08:03:46.444Z,20.91
2023-06-23T08:04:46.306Z,20.90
2023-06-23T08:05:46.223Z,21.00
2023-06-23T08:06:46.326Z,21.01
2023-06-23T08:07:46.156Z,21.06
2023-06-23T08:08:46.171Z,21.06
2023-06-23T08:09:46.112Z,21.09
2023-06-23T08:10:46.115Z,21.15
2023-06-23T08:11:46.100Z,21.12
2023-06-23T08:12:46.080Z,21.05
2023-06-23T08:13:46.051Z,21.11
2023-06-23T08:14:46.099Z,21.11
2023-06-23T08:15:46.035Z,21.18
2023-06-23T08:16:46.017Z,21.18
2023-06-23T08:17:46.838Z,21.27
2023-06-23T08:18:45.966Z,21.27
2023-06-23T08:19:46.034Z,21.16
2023-06-23T08:20:45.942Z,21.31
2023-06-23T08:21:45.949Z,21.28
2023-06-23T08:22:45.875Z,21.34
2023-06-23T08:23:45.976Z,21.36
2023-06-23T08:24:45.846Z,21.31
2023-06-23T08:25:45.892Z,21.45
2023-06-23T08:26:45.802Z,21.40
2023-06-23T08:27:45.783Z,21.59
2023-06-23T08:28:45.793Z,21.66
2023-06-23T08:29:45.821Z,21.82
2023-06-23T08:30:45.783Z,21.79
2023-06-23T08:31:45.886Z,21.96
2023-06-23T08:32:45.711Z,22.05
2023-06-23T08:33:45.715Z,22.12
2023-06-23T08:34:45.725Z,22.11
2023-06-23T08:35:45.712Z,22.09
2023-06-23T08:36:45.641Z,22.11
2023-06-23T08:37:45.610Z,22.17
2023-06-23T08:38:45.607Z,22.29
2023-06-23T08:39:45.589Z,22.30
2023-06-23T08:40:45.571Z,22.42
2023-06-23T08:41:45.564Z,22.33
2023-06-23T08:42:45.582Z,22.45
2023-06-23T08:43:45.606Z,22.54
2023-06-23T08:44:45.475Z,22.66
2023-06-23T08:45:45.465Z,22.67
2023-06-23T08:47:04.389Z,22.67
2023-06-23T08:47:45.587Z,22.59
2023-06-23T08:48:45.527Z,22.66
2023-06-23T08:49:45.397Z,22.63
2023-06-23T08:50:45.381Z,22.60
2023-06-23T08:51:45.466Z,22.70
2023-06-23T08:52:45.340Z,22.76
2023-06-23T08:53:45.355Z,23.01
2023-06-23T08:54:45.301Z,23.23
2023-06-23T08:55:45.283Z,23.32
2023-06-23T08:56:45.265Z,23.26
2023-06-23T08:57:45.278Z,23.35
2023-06-23T08:58:45.379Z,23.54
2023-06-23T08:59:45.304Z,23.53
2023-06-23T09:00:45.237Z,23.52
2023-06-23T09:01:45.228Z,23.59
2023-06-23T09:02:45.211Z,23.63
2023-06-23T09:03:45.220Z,23.64
2023-06-23T09:04:45.123Z,23.78
2023-06-23T09:05:45.127Z,23.87
2023-06-23T09:06:45.104Z,24.02
2023-06-23T09:07:45.143Z,24.02
2023-06-23T09:08:45.073Z,24.05
2023-06-23T09:09:45.055Z,24.14
2023-06-23T09:10:45.069Z,24.42
2023-06-23T09:11:45.013Z,24.64
2023-06-23T09:12:45.013Z,24.67
2023-06-23T09:13:45.083Z,24.67
2023-06-23T09:14:44.949Z,24.70
2023-06-23T09:16:44.918Z,24.63
2023-06-23T09:17:44.947Z,24.51
2023-06-23T09:18:44.890Z,24.41
2023-06-23T09:19:44.918Z,24.31
2023-06-23T09:20:46.320Z,24.30
2023-06-23T09:21:45.030Z,24.29
2023-06-23T09:22:44.824Z,24.23
2023-06-23T09:23:44.814Z,24.08
2023-06-23T09:24:44.870Z,23.90
2023-06-23T09:25:44.785Z,23.72
2023-06-23T09:26:44.766Z,23.77
2023-06-23T09:27:44.730Z,24.02
2023-06-23T09:28:44.718Z,24.12
2023-06-23T09:29:44.725Z,24.26
2023-06-23T09:30:44.761Z,24.31
2023-06-23T09:31:44.665Z,24.11
2023-06-23T09:32:44.771Z,24.05
2023-06-23T09:33:44.654Z,23.92
2023-06-23T09:34:44.633Z,23.87
2023-06-23T09:35:44.649Z,23.77
2023-06-23T09:36:44.595Z,23.84
2023-06-23T09:37:44.644Z,23.94
2023-06-23T09:38:44.560Z,23.81
2023-06-23T09:39:44.573Z,23.81
2023-06-23T09:40:44.532Z,23.84
2023-06-23T09:41:52.673Z,24.19
2023-06-23T09:42:44.484Z,24.33
2023-06-23T09:43:44.626Z,24.53
2023-06-23T09:44:44.472Z,24.61
2023-06-23T09:45:44.449Z,24.66
2023-06-23T09:46:44.422Z,24.56
2023-06-23T09:47:44.561Z,24.51
2023-06-23T09:48:44.403Z,24.41
2023-06-23T09:49:44.434Z,24.48
2023-06-23T09:50:44.354Z,24.52
2023-06-23T09:51:44.335Z,24.56
2023-06-23T09:54:27.216Z,25.01
2023-06-23T09:55:27.147Z,25.12
2023-06-23T09:57:31.204Z,25.27
2023-06-23T09:58:31.177Z,25.49
2023-06-23T10:00:35.465Z,25.79
2023-06-23T10:01:35.231Z,25.85
2023-06-23T10:03:39.459Z,25.64
2023-06-23T10:04:39.201Z,25.66
2023-06-23T10:06:43.384Z,25.76
2023-06-23T10:07:43.205Z,25.91
2023-06-23T10:09:47.291Z,26.41
2023-06-23T10:10:47.237Z,26.56
2023-06-23T10:12:51.288Z,26.54
2023-06-23T10:13:51.254Z,26.59
2023-06-23T10:15:44.460Z,26.76
2023-06-23T10:16:44.303Z,26.79
2023-06-23T10:18:48.578Z,27.13
2023-06-23T10:19:48.405Z,27.42
2023-06-23T10:21:52.548Z,27.40
2023-06-23T10:22:52.530Z,27.28
2023-06-23T10:24:56.819Z,27.42
2023-06-23T10:25:56.707Z,27.40
2023-06-23T10:28:00.797Z,27.48
2023-06-23T10:29:00.766Z,27.59
2023-06-23T10:31:05.085Z,27.39
2023-06-23T10:32:04.957Z,27.31
2023-06-23T10:34:09.179Z,27.77
2023-06-23T10:35:08.994Z,27.99
2023-06-23T10:37:13.165Z,28.06
2023-06-23T10:38:13.125Z,27.84
2023-06-23T10:40:17.647Z,28.14
2023-06-23T10:41:17.229Z,28.14
2023-06-23T10:43:21.526Z,27.21
2023-06-23T10:44:21.346Z,27.02
2023-06-23T10:46:25.517Z,27.23
2023-06-23T10:47:25.517Z,27.23
2023-06-23T10:49:29.764Z,27.08
2023-06-23T10:50:29.579Z,27.35
2023-06-23T10:52:33.880Z,27.68
2023-06-23T10:53:33.834Z,27.55
2023-06-23T10:55:26.830Z,27.93
2023-06-23T10:56:26.658Z,27.99
2023-06-23T10:58:30.950Z,28.46
2023-06-23T10:59:30.854Z,28.54
2023-06-23T11:01:35.121Z,28.24
2023-06-23T11:02:34.963Z,28.38
2023-06-23T11:04:39.218Z,28.80
2023-06-23T11:05:39.015Z,28.39
2023-06-23T11:07:43.198Z,28.43
2023-06-23T11:08:43.061Z,28.57
2023-06-23T11:10:47.348Z,28.65
2023-06-23T11:11:47.155Z,28.57
2023-06-23T11:13:51.221Z,28.33
2023-06-23T11:14:51.161Z,28.42
2023-06-23T11:16:55.241Z,29.00
2023-06-23T11:17:55.221Z,29.36
2023-06-23T11:19:59.264Z,29.52
2023-06-23T11:20:59.191Z,29.60
2023-06-23T11:23:03.317Z,29.58
2023-06-23T11:24:03.226Z,29.32
2023-06-23T11:26:07.294Z,28.79
2023-06-23T11:27:07.241Z,28.60
2023-06-23T11:29:11.323Z,28.24
2023-06-23T11:30:11.308Z,28.18
2023-06-23T11:32:15.439Z,28.61
2023-06-23T11:33:15.360Z,28.80
2023-06-23T11:35:08.381Z,28.88
2023-06-23T11:36:08.342Z,28.91
2023-06-23T11:38:12.404Z,28.87
2023-06-23T11:39:12.388Z,28.76
2023-06-23T11:41:16.393Z,28.57
2023-06-23T11:42:16.352Z,28.48
2023-06-23T11:44:20.423Z,28.38
2023-06-23T11:45:20.355Z,28.35
2023-06-23T11:47:24.485Z,28.24
2023-06-23T11:48:24.370Z,28.36
2023-06-23T11:50:28.454Z,28.54
2023-06-23T11:51:28.385Z,28.54
2023-06-23T11:53:32.467Z,28.76
2023-06-23T11:54:32.482Z,28.36
2023-06-23T11:56:36.505Z,28.14
2023-06-23T11:57:36.446Z,28.13
2023-06-23T11:59:40.527Z,28.52
2023-06-23T12:00:40.433Z,28.67
2023-06-23T12:02:44.537Z,29.18
2023-06-23T12:03:44.599Z,29.30
2023-06-23T12:05:37.899Z,29.55
2023-06-23T12:06:37.443Z,29.79
2023-06-23T12:08:41.485Z,30.13
2023-06-23T12:09:41.421Z,30.23
2023-06-23T12:11:45.501Z,30.29
2023-06-23T12:12:45.435Z,30.28
2023-06-23T12:14:49.523Z,29.82
2023-06-23T12:15:49.485Z,29.64
2023-06-23T12:17:53.562Z,29.78
2023-06-23T12:18:53.489Z,29.95
2023-06-23T12:20:57.550Z,30.04
2023-06-23T12:21:57.486Z,30.22
2023-06-23T12:24:01.567Z,30.32
2023-06-23T12:25:01.506Z,30.34
2023-06-23T12:27:05.669Z,30.11
2023-06-23T12:28:05.529Z,30.25
2023-06-23T12:30:09.607Z,30.25
2023-06-23T12:31:09.536Z,30.23
2023-06-23T12:33:13.657Z,29.70
2023-06-23T12:34:13.551Z,29.86
2023-06-23T12:36:17.653Z,29.88
2023-06-23T12:37:18.896Z,30.21
2023-06-23T12:39:21.644Z,30.45
2023-06-23T12:40:21.586Z,30.64
2023-06-23T12:42:25.665Z,30.76
2023-06-23T12:43:25.603Z,30.91
2023-06-23T12:45:18.630Z,31.22
2023-06-23T12:46:18.691Z,31.13
2023-06-23T12:48:22.627Z,30.70
2023-06-23T12:49:22.575Z,30.57
2023-06-23T12:51:26.640Z,30.28
2023-06-23T12:52:26.588Z,30.30
2023-06-23T12:54:30.673Z,30.44
2023-06-23T12:55:30.940Z,30.70
2023-06-23T12:57:34.701Z,30.83
2023-06-23T12:58:34.636Z,30.68
2023-06-23T13:00:38.689Z,29.55
2023-06-23T13:01:38.644Z,29.32
2023-06-23T13:03:42.810Z,28.92
2023-06-23T13:04:42.637Z,29.08
2023-06-23T13:06:46.719Z,29.62
2023-06-23T13:07:46.653Z,29.82
2023-06-23T13:09:50.698Z,30.23
2023-06-23T13:10:50.663Z,30.44
2023-06-23T13:12:54.753Z,30.21
2023-06-23T13:13:54.693Z,30.32
2023-06-23T13:15:47.708Z,30.21
2023-06-23T13:16:47.639Z,30.15
2023-06-23T13:18:52.741Z,30.26
2023-06-23T13:19:51.659Z,30.49
2023-06-23T13:21:55.724Z,30.67
2023-06-23T13:22:55.684Z,30.72
2023-06-23T13:24:59.744Z,30.96
2023-06-23T13:25:59.712Z,30.96
2023-06-23T13:28:03.764Z,31.37
2023-06-23T13:29:03.708Z,31.46
2023-06-23T13:31:07.788Z,31.50
2023-06-23T13:32:07.747Z,31.23
2023-06-23T13:34:11.795Z,30.67
2023-06-23T13:35:11.760Z,30.28
2023-06-23T13:37:15.774Z,29.71
2023-06-23T13:38:15.740Z,29.66
2023-06-23T13:40:19.834Z,30.11
2023-06-23T13:41:19.761Z,30.22
2023-06-23T13:43:23.846Z,30.46
2023-06-23T13:44:23.776Z,30.46
2023-06-23T13:46:27.858Z,30.59
2023-06-23T13:47:27.815Z,30.78
2023-06-23T13:49:31.872Z,31.28
2023-06-23T13:50:31.810Z,31.46
2023-06-23T13:52:35.886Z,31.47
2023-06-23T13:53:35.834Z,31.16
2023-06-23T13:55:28.849Z,30.70
2023-06-23T13:56:28.784Z,30.42
2023-06-23T13:58:32.859Z,30.34
2023-06-23T13:59:32.793Z,30.56
2023-06-23T14:01:36.935Z,30.82
2023-06-23T14:02:36.880Z,30.96
2023-06-23T14:04:40.878Z,31.05
2023-06-23T14:05:52.923Z,30.98
2023-06-23T14:07:44.921Z,31.46
2023-06-23T14:08:44.864Z,31.64
2023-06-23T14:10:48.919Z,31.71
2023-06-23T14:11:48.875Z,31.62
2023-06-23T14:13:53.049Z,31.04
2023-06-23T14:14:52.874Z,31.04
2023-06-23T14:16:56.952Z,30.93
2023-06-23T14:17:56.960Z,30.94
2023-06-23T14:20:00.968Z,30.94
2023-06-23T14:21:00.905Z,31.00
2023-06-23T14:23:04.993Z,30.90
2023-06-23T14:24:04.931Z,30.70
2023-06-23T14:26:09.000Z,30.21
2023-06-23T14:27:08.965Z,29.99
2023-06-23T14:29:13.008Z,30.16
2023-06-23T14:30:12.967Z,30.08
2023-06-23T14:32:17.045Z,30.48
2023-06-23T14:33:16.968Z,30.70